Home > Products > Valid Products > MTR

000
SAUS43 KEAX 230353
MTRCDJ
METAR KCDJ 230352Z AUTO 18010G19KT 13/11 A2975 RMK AO1 SLP072 P0001
T01330106





000
SAUS43 KEAX 230253
MTRCDJ
METAR KCDJ 230252Z AUTO 17011KT 13/10 A2974 RMK AO1 SLP070 T01330100
58018





000
SAUS43 KEAX 230153
MTRCDJ
METAR KCDJ 230152Z AUTO 17006KT 13/10 A2977 RMK AO1 SLP081 T01280100





000
SAUS43 KEAX 230053
MTRCDJ
METAR KCDJ 230052Z AUTO 17007KT 13/09 A2977 RMK AO1 SLP082 T01330094





000
SAUS43 KEAX 222353
MTRCDJ
METAR KCDJ 222352Z AUTO 18009KT 14/10 A2979 RMK AO1 SLP088 60001
T01440100 10161 20144 58009





000
SAUS43 KEAX 222253
MTRCDJ
METAR KCDJ 222252Z AUTO 17009KT 16/11 A2980 RMK AO1 SLP092 T01610106





000
SAUS43 KEAX 222153
MTRCDJ
METAR KCDJ 222152Z AUTO 19008KT 16/11 A2982 RMK AO1 SLP097 T01610111





000
SAUS43 KEAX 222153
MTRCDJ
METAR KCDJ 222152Z AUTO 19008KT 16/11 A2982 RMK AO1 SLP097 T01610111





000
SAUS43 KEAX 222053
MTRCDJ
METAR KCDJ 222052Z AUTO 19008KT 16/12 A2982 RMK AO1 SLP098 60001
T01560117 56023





000
SAUS43 KEAX 221953
MTRCDJ
METAR KCDJ 221952Z AUTO 20007KT 15/12 A2984 RMK AO1 SLP105 T01500117





000
SAUS43 KEAX 221853
MTRCDJ
METAR KCDJ 221852Z AUTO 19009G18KT 15/12 A2986 RMK AO1 SLP112 P0001
T01500117





000
SAUS43 KEAX 221753
MTRCDJ
METAR KCDJ 221752Z AUTO 19008KT 15/12 A2989 RMK AO1 SLP122 60002
T01500117 10150 20100 58023





000
SAUS43 KEAX 221653
MTRCDJ
METAR KCDJ 221652Z AUTO 20009G18KT 14/11 A2993 RMK AO1 SLP137 P0001
T01390111





000
SAUS43 KEAX 221554
MTRCDJ
METAR KCDJ 221552Z AUTO 19009KT 13/11 A2996 RMK AO1 SLP147 T01280111





000
SAUS43 KEAX 221554
MTRCDJ
METAR KCDJ 221552Z AUTO 19009KT 13/11 A2996 RMK AO1 SLP147 T01280111





000
SAUS43 KEAX 221453
MTRCDJ
METAR KCDJ 221452Z AUTO 18006KT 11/11 A2996 RMK AO1 SLP150 60001
T01110106 57006





000
SAUS43 KEAX 221353
MTRCDJ
METAR KCDJ 221352Z AUTO 20004KT 11/10 A2997 RMK AO1 SLP154 T01060100





000
SAUS43 KEAX 221253
MTRCDJ
METAR KCDJ 221252Z AUTO 19006KT 11/09 A2997 RMK AO1 SLP154 P0001
T01060094





000
SAUS43 KEAX 221153
MTRCDJ
METAR KCDJ 221152Z AUTO 19007KT 10/09 A2998 RMK AO1 SLP157 60001
70003 T01000089 10100 20072 58017





000
SAUS43 KEAX 221053
MTRCDJ
METAR KCDJ 221052Z AUTO 19008KT 09/08 A2999 RMK AO1 SLP162 T00940083





000
SAUS43 KEAX 220954
MTRCDJ
METAR KCDJ 220952Z AUTO 19009KT 09/08 A3001 RMK AO1 SLP170 P0001
T00940083





000
SAUS43 KEAX 220853
MTRCDJ
METAR KCDJ 220852Z AUTO 18009KT 09/08 A3003 RMK AO1 SLP175 T00940078
58013





000
SAUS43 KEAX 220753
MTRCDJ
METAR KCDJ 220752Z AUTO 18007KT 08/06 A3004 RMK AO1 SLP179 T00830061





000
SAUS43 KEAX 220653
MTRCDJ
METAR KCDJ 220652Z AUTO 16006KT 07/04 A3006 RMK AO1 SLP186 T00720039





000
SAUS43 KEAX 220553
MTRCDJ
METAR KCDJ 220552Z AUTO 16004KT 07/03 A3007 RMK AO1 SLP190 60002
T00720033 10072 20039 400721078 56010





000
SAUS43 KEAX 220453
MTRCDJ
METAR KCDJ 220452Z AUTO 15006KT 07/02 A3008 RMK AO1 SLP195 T00670022





000
SAUS43 KEAX 220353
MTRCDJ
METAR KCDJ 220352Z AUTO 15007KT 06/01 A3009 RMK AO1 SLP199 T00560006





000
SAUS43 KEAX 220253
MTRCDJ
METAR KCDJ 220252Z AUTO 15006KT 04/00 A3010 RMK AO1 SLP205 60002
T00440000 58017





000
SAUS43 KEAX 220153
MTRCDJ
METAR KCDJ 220152Z AUTO 13004KT 04/M01 A3012 RMK AO1 SLP215 P0001
T00391006





000
SAUS43 KEAX 220053
MTRCDJ
METAR KCDJ 220052Z AUTO 15004KT 04/M02 A3013 RMK AO1 SLP219 P0001
T00391017





000
SAUS43 KEAX 212353
MTRCDJ
METAR KCDJ 212352Z AUTO 13006KT 04/M03 A3015 RMK AO1 SLP223
T00441028 10050 20033 58009





000
SAUS43 KEAX 212253
MTRCDJ
METAR KCDJ 212252Z AUTO 13007KT 04/M02 A3016 RMK AO1 SLP226
T00441022





000
SAUS43 KEAX 212153
MTRCDJ
METAR KCDJ 212152Z AUTO 14005KT 05/M04 A3017 RMK AO1 SLP231
T00501039





000
SAUS43 KEAX 212053
MTRCDJ
METAR KCDJ 212052Z AUTO 15009KT 05/M04 A3018 RMK AO1 SLP233
T00501039 56025





000
SAUS43 KEAX 211953
MTRCDJ
METAR KCDJ 211952Z AUTO 14008KT 04/M04 A3020 RMK AO1 SLP241
T00441044





000
SAUS43 KEAX 211853
MTRCDJ
METAR KCDJ 211852Z AUTO 13008KT 04/M06 A3022 RMK AO1 SLP251
T00391056





000
SAUS43 KEAX 211753
MTRCDJ
METAR KCDJ 211752Z AUTO 14010G17KT 110V170 03/M06 A3025 RMK AO1
SLP261 T00331061 10033 21067 58022





000
SAUS43 KEAX 211653
MTRCDJ
METAR KCDJ 211652Z AUTO 12008G14KT 02/M07 A3029 RMK AO1 SLP275
T00171072





000
SAUS43 KEAX 211553
MTRCDJ
METAR KCDJ 211552Z AUTO 13008KT 00/M08 A3031 RMK AO1 SLP280
T00001083





000
SAUS43 KEAX 211553
MTRCDJ
METAR KCDJ 211552Z AUTO 13008KT 00/M08 A3031 RMK AO1 SLP280
T00001083





000
SAUS43 KEAX 211453
MTRCDJ
METAR KCDJ 211452Z AUTO 12006KT M03/M09 A3032 RMK AO1 SLP287
T10331094 50003





000
SAUS43 KEAX 211353
MTRCDJ
METAR KCDJ 211352Z AUTO 12004KT M06/M11 A3032 RMK AO1 SLP288
T10561106





000
SAUS43 KEAX 211253
MTRCDJ
METAR KCDJ 211252Z AUTO 11003KT M06/M11 A3032 RMK AO1 SLP288
T10611106 $





000
SAUS43 KEAX 211153
MTRCDJ
METAR KCDJ 211152Z AUTO 10003KT M06/M11 A3031 RMK AO1 SLP283
T10611111 11056 21078 56005 $





000
SAUS43 KEAX 211053
MTRCDJ
METAR KCDJ 211052Z AUTO 12005KT M06/M11 A3031 RMK AO1 SLP283
T10611106 $





000
SAUS43 KEAX 210953
MTRCDJ
METAR KCDJ 210952Z AUTO 10004KT M06/M11 A3032 RMK AO1 SLP283
T10611106 $





000
SAUS43 KEAX 210853
MTRCDJ
METAR KCDJ 210852Z AUTO VRB03KT M06/M11 A3032 RMK AO1 SLP285
T10611106 58003 $





000
SAUS43 KEAX 210753
MTRCDJ
METAR KCDJ 210752Z AUTO 04003KT M06/M10 A3033 RMK AO1 SLP288
T10611100 $





000
SAUS43 KEAX 210653
MTRCDJ
METAR KCDJ 210652Z AUTO 00000KT M08/M10 A3033 RMK AO1 SLP289
T10781100 $





000
SAUS43 KEAX 210553
MTRCDJ
METAR KCDJ 210552Z AUTO 00000KT M07/M10 A3033 RMK AO1 SLP290
T10671100 11028 21078 400331106 51016 $





000
SAUS43 KEAX 210453
MTRCDJ
METAR KCDJ 210452Z AUTO 00000KT M07/M09 A3032 RMK AO1 SLP286
T10671094





000
SAUS43 KEAX 210353
MTRCDJ
METAR KCDJ 210352Z AUTO 00000KT M06/M09 A3031 RMK AO1 SLP283
T10561094





000
SAUS43 KEAX 210353
MTRCDJ
METAR KCDJ 210352Z AUTO 00000KT M06/M09 A3031 RMK AO1 SLP283
T10561094





000
SAUS43 KEAX 210253
MTRCDJ
METAR KCDJ 210252Z AUTO 04003KT M06/M09 A3029 RMK AO1 SLP276
T10611094 51012





000
SAUS43 KEAX 210153
MTRCDJ
METAR KCDJ 210152Z AUTO 02003KT M05/M09 A3028 RMK AO1 SLP274
T10501094





000
SAUS43 KEAX 210053
MTRCDJ
METAR KCDJ 210052Z AUTO 00000KT M05/M09 A3027 RMK AO1 SLP271
T10501094





000
SAUS43 KEAX 202353
MTRCDJ
METAR KCDJ 202352Z AUTO 00000KT M03/M09 A3025 RMK AO1 SLP263
T10281089 10033 21028 51013





000
SAUS43 KEAX 202253
MTRCDJ
METAR KCDJ 202252Z AUTO 36003KT 00/M08 A3024 RMK AO1 SLP258
T00001083





000
SAUS43 KEAX 202153
MTRCDJ
METAR KCDJ 202152Z AUTO 33003KT 02/M08 A3022 RMK AO1 SLP251
T00221083





000
SAUS43 KEAX 202053
MTRCDJ
METAR KCDJ 202052Z AUTO 30005KT 03/M08 A3021 RMK AO1 SLP249
T00281083 56015





000
SAUS43 KEAX 201953
MTRCDJ
METAR KCDJ 201952Z AUTO 32006KT 03/M08 A3022 RMK AO1 SLP253
T00281078





000
SAUS43 KEAX 201853
MTRCDJ
METAR KCDJ 201852Z AUTO 30006KT 02/M09 A3024 RMK AO1 SLP259
T00171089





000
SAUS43 KEAX 201753
MTRCDJ
METAR KCDJ 201752Z AUTO VRB06KT 01/M08 A3026 RMK AO1 SLP264
T00111083 10011 21078 58003





000
SAUS43 KEAX 201653
MTRCDJ
METAR KCDJ 201652Z AUTO VRB06KT M01/M09 A3028 RMK AO1 SLP272
T10111089





000
SAUS43 KEAX 201553
MTRCDJ
METAR KCDJ 201552Z AUTO VRB06KT M02/M09 A3027 RMK AO1 SLP270
T10221089 $





000
SAUS43 KEAX 201453
MTRCDJ
METAR KCDJ 201452Z AUTO 31006KT M04/M09 A3027 RMK AO1 SLP268
T10441089 53016 $





000
SAUS43 KEAX 201353
MTRCDJ
METAR KCDJ 201352Z AUTO 30004KT M06/M10 A3025 RMK AO1 SLP262
T10611100





000
SAUS43 KEAX 201253
MTRCDJ
METAR KCDJ 201252Z AUTO 30003KT M07/M11 A3022 RMK AO1 SLP254
T10721106 $





000
SAUS43 KEAX 201153
MTRCDJ
METAR KCDJ 201152Z AUTO 00000KT M08/M11 A3022 RMK AO1 SLP252
T10781106 11072 21106 55001 $





000
SAUS43 KEAX 201053
MTRCDJ
METAR KCDJ 201052Z AUTO VRB03KT M07/M11 A3020 RMK AO1 SLP246
T10721106 $





000
SAUS43 KEAX 200954
MTRCDJ
METAR KCDJ 200952Z AUTO VRB04KT M07/M11 A3021 RMK AO1 SLP249
T10721106 $





000
SAUS43 KEAX 200954
MTRCDJ
METAR KCDJ 200952Z AUTO VRB04KT M07/M11 A3021 RMK AO1 SLP249
T10721106 $





000
SAUS43 KEAX 200853
MTRCDJ
METAR KCDJ 200852Z AUTO 00000KT M09/M12 A3022 RMK AO1 SLP252
T10941117 53004 $





000
SAUS43 KEAX 200753
MTRCDJ
METAR KCDJ 200752Z AUTO 00000KT M11/M13 A3022 RMK AO1 SLP251
T11061128





000
SAUS43 KEAX 200653
MTRCDJ
METAR KCDJ 200652Z AUTO 00000KT M08/M11 A3022 RMK AO1 SLP250
T10831106





000
SAUS43 KEAX 200553
MTRCDJ
METAR KCDJ 200552Z AUTO 00000KT M09/M11 A3021 RMK AO1 SLP249
T10941111 11028 21094 400221094 51003





000
SAUS43 KEAX 200453
MTRCDJ
METAR KCDJ 200452Z AUTO 00000KT M08/M11 A3020 RMK AO1 SLP245
T10781106





    US Dept of Commerce
    National Oceanic and Atmospheric Administration
    National Weather Service
    1325 East West Highway
    Silver Spring, MD 20910
    Page Author: NWS Internet Services Team
Disclaimer
Information Quality
Credits
Glossary
Privacy Policy
Freedom of Information Act (FOIA)
About Us
Career Opportunities